Latest Weather Observations for Gingin Airport

IDW60801

Issued at 7:05 am WST Friday 28 November 2014 (issued every 30 minutes, with the page automatically refreshed every 10 minutes)

About weather observations | Map of weather stations | Latest weather observations for WA | Other Formats
Station Details ID: 009178 Name: GINGIN AERO Lat: -31.46 Lon: 115.86 Height: 73.0 m
Data from the previous 72 hours. | See also: Recent months at Gingin Airport
Date/Time
WST
Temp
°C
App
Temp
°C
Dew
Point
Rel
Hum
%
Delta-T
°C
Wind Press
QNH
hPa
Press
MSL
hPa
Rain
since 9 am
mm
Dir
 
Spd
km/h
Gust
km/h
Spd
kts
Gust
kts
28/07:00am 19.7 21.0 19.4 98 0.2 SSW 11 20 6 11 1010.2 1010.0 3.8
28/06:30am 18.8 20.8 18.8 100 0.0 WSW 6 11 3 6 1010.0 1009.8 3.8
28/06:00am 17.7 18.7 17.7 100 0.0 W 9 11 5 6 1009.7 1009.5 3.8
28/05:30am 17.1 19.2 17.1 100 0.0 SSE 2 6 1 3 1009.4 1009.2 3.8
28/05:00am 17.4 18.6 17.4 100 0.0 SE 7 9 4 5 1009.3 1009.1 3.8
28/04:30am 17.7 18.7 17.7 100 0.0 S 9 11 5 6 1009.0 1008.8 3.8
28/04:00am 17.7 19.1 17.7 100 0.0 SW 7 9 4 5 1009.0 1008.8 3.8
28/03:30am 17.8 18.8 17.8 100 0.0 WSW 9 11 5 6 1008.8 1008.6 3.8
28/03:00am 18.2 20.0 18.2 100 0.0 S 6 9 3 5 1008.5 1008.3 3.8
28/02:30am 18.3 19.2 18.3 100 0.0 S 11 13 6 7 1008.5 1008.3 3.8
28/02:00am 18.5 20.2 18.5 100 0.0 SW 7 13 4 7 1008.7 1008.5 3.8
28/01:30am 18.6 20.9 18.6 100 0.0 ESE 4 7 2 4 1008.8 1008.6 3.8
28/01:00am 19.4 22.8 19.4 100 0.0 CALM 0 0 0 0 1008.8 1008.6 3.8
28/12:30am 19.7 22.1 19.7 100 0.0 SSE 6 9 3 5 1009.1 1008.9 3.8
28/12:00am 19.7 22.1 19.7 100 0.0 SSE 6 7 3 4 1009.1 1008.9 3.8
 
Date/Time
WST
Temp
°C
App
Temp
°C
Dew
Point
Rel
Hum
%
Delta-T
°C
Wind Press
QNH
hPa
Press
MSL
hPa
Rain
since 9 am
mm
Dir
 
Spd
km/h
Gust
km/h
Spd
kts
Gust
kts
27/11:30pm 19.8 22.1 19.8 100 0.0 ESE 7 9 4 5 1009.1 1008.9 3.8
27/11:00pm 20.0 22.4 20.0 100 0.0 S 7 11 4 6 1009.3 1009.1 3.8
27/10:30pm 20.2 22.3 20.2 100 0.0 SSW 9 11 5 6 1009.2 1009.0 3.8
27/10:00pm 19.9 21.9 19.9 100 0.0 WSW 9 11 5 6 1009.2 1009.0 3.8
27/09:30pm 20.1 22.3 19.6 97 0.3 W 7 13 4 7 1009.0 1008.8 3.8
27/09:00pm 21.4 23.6 19.7 90 1.1 NE 7 13 4 7 1008.9 1008.7 3.8
27/08:30pm 20.9 24.4 20.4 97 0.3 E 2 7 1 4 1008.7 1008.5 3.8
27/08:00pm 21.4 23.9 19.9 91 1.0 E 6 7 3 4 1008.7 1008.5 3.8
27/07:30pm 22.1 25.6 19.5 85 1.7 CALM 0 4 0 2 1008.6 1008.4 3.8
27/07:00pm 23.8 26.0 19.5 77 2.8 E 7 9 4 5 1008.6 1008.4 3.8
27/06:30pm 24.6 25.9 18.5 69 3.9 SE 9 11 5 6 1008.6 1008.4 3.8
27/06:00pm 24.9 24.8 17.9 65 4.4 SE 15 20 8 11 1008.6 1008.4 3.8
27/05:30pm 25.0 24.6 18.0 65 4.4 SSE 17 24 9 13 1008.7 1008.5 3.8
27/05:00pm 25.3 24.7 17.5 62 4.9 S 17 22 9 12 1008.7 1008.5 3.8
27/04:30pm 25.5 25.1 18.9 67 4.2 S 19 26 10 14 1009.0 1008.8 3.8
27/04:00pm 25.0 25.4 19.8 73 3.4 S 17 22 9 12 1009.4 1009.2 3.8
27/03:30pm 24.7 25.1 21.0 80 2.4 S 20 28 11 15 1009.7 1009.5 3.8
27/03:00pm 24.3 23.8 20.0 77 2.8 S 22 30 12 16 1009.9 1009.7 3.8
27/02:30pm 24.1 23.6 20.8 82 2.2 SSW 24 30 13 16 1010.2 1010.0 3.8
27/02:00pm 23.4 25.8 22.2 93 0.8 SW 13 17 7 9 1010.7 1010.5 3.8
27/01:30pm 22.5 25.3 20.4 88 1.4 WSW 6 11 3 6 1011.0 1010.8 3.8
27/01:00pm 24.6 25.7 18.1 67 4.1 S 9 17 5 9 1010.7 1010.5 1.0
27/12:30pm 25.1 24.9 17.6 63 4.7 SSE 15 20 8 11 1010.1 1009.9 1.0
27/12:00pm 25.4 24.7 18.3 65 4.5 SSE 19 28 10 15 1010.2 1010.0 1.0
27/11:30am 23.8 23.7 19.5 77 2.8 SSE 19 24 10 13 1010.9 1010.7 1.0
27/11:00am 22.4 23.6 20.7 90 1.1 S 15 17 8 9 1011.5 1011.3 1.0
27/10:30am 22.0 23.1 20.5 91 1.0 SW 15 20 8 11 1012.3 1012.1 1.0
27/10:00am 21.3 20.9 21.0 98 0.2 SSW 24 32 13 17 1012.0 1011.8 1.0
27/09:30am 22.1 24.8 21.3 95 0.5 SSW 9 13 5 7 1012.3 1012.1 0.6
27/09:00am 23.3 24.3 20.2 83 2.0 S 15 19 8 10 1011.7 1011.5 14.8
27/08:30am 24.9 27.1 18.3 66 4.2 ENE 4 11 2 6 1011.4 1011.2 14.6
27/08:00am 23.5 24.6 18.8 75 3.0 SE 11 15 6 8 1011.3 1011.1 14.6
27/07:30am 21.9 24.5 20.0 89 1.2 SE 6 9 3 5 1011.5 1011.3 14.6
27/07:00am 21.3 22.7 19.6 90 1.1 ESE 11 13 6 7 1011.5 1011.3 14.6
27/06:30am 19.9 21.9 19.9 100 0.0 ESE 9 13 5 7 1011.4 1011.2 14.6
27/06:00am 19.0 20.5 19.0 100 0.0 S 9 13 5 7 1011.2 1011.0 14.6
27/05:30am 19.1 21.1 19.1 100 0.0 SSW 7 9 4 5 1011.0 1010.8 14.6
27/05:00am 19.7 22.0 18.5 93 0.7 W 4 11 2 6 1010.6 1010.4 14.4
27/04:30am 20.4 21.2 18.2 87 1.4 N 11 15 6 8 1010.2 1010.0 14.4
27/04:00am 20.3 20.0 18.2 88 1.3 NE 17 22 9 12 1009.6 1009.4 14.4
27/03:30am 20.1 19.7 18.0 88 1.3 NE 17 22 9 12 1009.3 1009.1 14.4
27/03:00am 20.3 19.5 18.1 87 1.4 NE 19 24 10 13 1009.4 1009.2 14.4
27/02:30am 20.2 20.5 17.8 86 1.5 NE 13 19 7 10 1009.4 1009.2 14.4
27/02:00am 20.1 18.9 17.5 85 1.6 ENE 20 28 11 15 1009.4 1009.2 14.4
27/01:30am 20.0 19.2 17.2 84 1.7 ENE 17 22 9 12 1009.6 1009.4 14.4
27/01:00am 20.4 18.6 17.0 81 2.1 E 22 30 12 16 1009.6 1009.4 14.4
27/12:30am 20.5 19.2 16.9 80 2.2 ENE 19 22 10 12 1009.9 1009.7 14.4
27/12:00am 20.5 19.5 16.7 79 2.3 E 17 24 9 13 1010.0 1009.8 14.4
 
Date/Time
WST
Temp
°C
App
Temp
°C
Dew
Point
Rel
Hum
%
Delta-T
°C
Wind Press
QNH
hPa
Press
MSL
hPa
Rain
since 9 am
mm
Dir
 
Spd
km/h
Gust
km/h
Spd
kts
Gust
kts
26/11:30pm 20.4 20.2 16.8 80 2.2 E 13 19 7 10 1010.4 1010.2 14.4
26/11:00pm 20.6 19.8 17.0 80 2.2 E 17 22 9 12 1010.5 1010.3 14.4
26/10:30pm 20.4 19.9 17.0 81 2.1 E 15 20 8 11 1010.6 1010.4 14.4
26/10:00pm 19.6 20.7 17.9 90 1.1 ENE 9 15 5 8 1010.8 1010.6 14.4
26/09:30pm 19.7 19.3 18.0 90 1.1 ESE 17 20 9 11 1010.4 1010.2 14.4
26/09:00pm 19.4 19.8 18.2 93 0.7 ESE 13 19 7 10 1010.5 1010.3 14.4
26/08:30pm 19.1 18.9 18.6 97 0.3 ESE 17 19 9 10 1009.8 1009.6 14.4
26/08:00pm 19.2 18.6 18.5 96 0.4 ESE 19 26 10 14 1010.3 1010.1 14.4
26/07:30pm 18.9 17.8 18.7 99 0.1 SE 22 30 12 16 1010.7 1010.5 14.4
26/07:00pm 19.1 20.1 18.6 97 0.3 SSE 11 15 6 8 1011.9 1011.7 13.8
26/06:30pm 19.2 18.6 18.4 95 0.5 ESE 19 22 10 12 1010.7 1010.5 13.6
26/06:00pm 19.3 18.9 18.0 92 0.8 ESE 17 24 9 13 1010.0 1009.8 12.6
26/05:30pm 19.8 17.3 17.2 85 1.6 ESE 26 33 14 18 1009.7 1009.5 11.4
26/05:00pm 19.8 16.7 17.4 86 1.5 ESE 30 39 16 21 1008.9 1008.7 10.6
26/04:30pm 20.9 14.9 16.5 76 2.7 E 43 54 23 29 1008.8 1008.6 9.6
26/04:11pm 21.2 15.6 16.4 74 2.9 ENE 41 61 22 33 1008.6 1008.4 8.8
26/04:10pm 20.6 15.8 16.6 78 2.4 ENE 37 44 20 24 1008.6 1008.4 8.6
26/04:00pm 21.2 14.1 17.0 77 2.6 E 50 57 27 31 1008.4 1008.2 8.2
26/03:52pm 20.3 16.7 17.3 83 1.8 E 32 50 17 27 1009.2 1009.0 8.0
26/03:30pm 20.7 17.1 17.3 81 2.1 ESE 32 39 17 21 1009.2 1009.0 7.6
26/03:00pm 20.8 18.8 17.4 81 2.1 S 24 28 13 15 1009.0 1008.8 5.8
26/02:30pm 22.2 18.3 16.5 70 3.5 S 32 39 17 21 1007.3 1007.1 2.0
26/02:00pm 23.4 19.5 16.4 64 4.3 SSE 32 44 17 24 1006.5 1006.2 1.2
26/01:30pm 25.2 24.2 16.6 59 5.3 S 17 26 9 14 1006.6 1006.3 1.2
26/01:00pm 29.0 26.6 15.5 44 8.3 WSW 22 30 12 16 1007.3 1007.1 0.0
26/12:30pm 34.2 30.4 5.7 17 15.4 N 15 20 8 11 1007.7 1007.5 0.0
26/12:00pm 35.1 30.3 5.5 16 16.0 E 20 28 11 15 1008.0 1007.8 0.0
26/11:30am 33.9 28.5 6.3 18 15.0 NNE 24 35 13 19 1008.6 1008.4 0.0
26/11:04am 33.8 27.4 5.4 17 15.2 NE 28 46 15 25 1009.1 1008.9 0.0
26/11:00am 33.8 26.5 5.4 17 15.3 NE 33 46 18 25 1009.3 1009.1 0.0
26/10:59am 33.7 26.6 5.3 17 15.2 NE 32 44 17 24 1009.3 1009.1 0.0
26/10:30am 33.0 28.4 6.3 19 14.5 ESE 20 26 11 14 1010.0 1009.8 0.0
26/10:00am 31.0 25.4 5.4 20 13.5 E 24 32 13 17 1010.7 1010.5 0.0
26/09:30am 29.9 23.1 5.2 21 12.9 E 30 37 16 20 1011.2 1011.0 0.0
26/09:00am 29.2 23.1 6.6 24 12.1 E 28 35 15 19 1011.5 1011.3 0.0
26/08:30am 26.6 20.2 7.1 29 10.3 E 30 39 16 21 1011.8 1011.6 0.0
26/08:00am 25.8 19.1 7.4 31 9.8 E 32 41 17 22 1012.1 1011.9 0.0
26/07:30am 24.6 18.5 8.1 35 8.8 E 30 37 16 20 1012.2 1012.0 0.0
26/07:00am 22.8 16.7 8.1 39 7.8 E 30 41 16 22 1012.1 1011.9 0.0
26/06:30am 21.7 17.8 8.6 43 6.9 E 19 30 10 16 1012.2 1012.0 0.0
26/06:00am 21.3 15.3 8.6 44 6.7 E 30 41 16 22 1012.0 1011.8 0.0
26/05:30am 21.2 14.7 8.1 43 6.9 E 32 41 17 22 1011.9 1011.7 0.0
26/05:00am 21.1 17.5 8.4 44 6.7 E 17 22 9 12 1012.2 1012.0 0.0
26/04:30am 21.5 17.0 8.4 43 6.9 ESE 22 30 12 16 1011.8 1011.6 0.0
26/04:00am 21.7 16.7 8.2 42 7.1 E 24 35 13 19 1011.5 1011.3 0.0
26/03:30am 21.9 16.1 8.1 41 7.3 E 28 37 15 20 1011.4 1011.2 0.0
26/03:00am 22.5 16.7 7.9 39 7.7 E 28 43 15 23 1011.6 1011.4 0.0
26/02:30am 23.2 17.3 7.7 37 8.1 E 28 39 15 21 1011.5 1011.3 0.0
26/02:00am 23.9 19.0 7.1 34 8.8 E 22 32 12 17 1011.6 1011.4 0.0
26/01:30am 24.8 19.2 7.0 32 9.3 ESE 26 41 14 22 1011.3 1011.1 0.0
26/01:00am 25.1 19.3 6.3 30 9.8 ESE 26 35 14 19 1011.3 1011.1 0.0
26/12:30am 25.8 19.2 5.9 28 10.3 ESE 30 44 16 24 1011.5 1011.3 0.0
26/12:19am 26.0 18.9 5.6 27 10.5 ESE 32 50 17 27 1011.5 1011.3 0.0
26/12:00am 26.3 19.3 4.1 24 11.2 ESE 30 41 16 22 1011.6 1011.4 0.0
 
Date/Time
WST
Temp
°C
App
Temp
°C
Dew
Point
Rel
Hum
%
Delta-T
°C
Wind Press
QNH
hPa
Press
MSL
hPa
Rain
since 9 am
mm
Dir
 
Spd
km/h
Gust
km/h
Spd
kts
Gust
kts
25/11:30pm 27.1 20.3 2.9 21 12.0 ESE 28 39 15 21 1011.7 1011.5 0.0
25/11:00pm 27.9 20.1 1.4 18 12.8 ESE 32 43 17 23 1011.8 1011.6 0.0
25/10:30pm 28.5 20.6 1.1 17 13.2 ESE 32 44 17 24 1011.9 1011.7 0.0
25/10:00pm 28.0 22.4 1.5 18 12.9 ESE 20 30 11 16 1012.3 1012.1 0.0
25/09:30pm 27.4 22.6 2.5 20 12.2 SE 17 22 9 12 1012.2 1012.0 0.0
25/09:00pm 27.6 22.8 2.6 20 12.3 SE 17 22 9 12 1012.2 1012.0 0.0
25/08:30pm 27.2 22.9 3.0 21 12.0 SSE 15 17 8 9 1012.2 1012.0 0.0
25/08:00pm 28.0 23.7 3.0 20 12.5 SE 15 19 8 10 1012.1 1011.9 0.0
25/07:30pm 29.0 24.5 2.3 18 13.2 SE 15 17 8 9 1011.8 1011.6 0.0
25/07:00pm 30.5 26.0 1.9 16 14.2 SE 15 20 8 11 1011.5 1011.3 0.0
25/06:30pm 32.4 26.7 0.5 13 15.7 SE 20 26 11 14 1011.3 1011.1 0.0
25/06:00pm 33.6 27.3 -0.9 11 16.7 ESE 22 32 12 17 1011.1 1010.9 0.0
25/05:30pm 34.1 27.9 -0.5 11 16.9 SE 22 32 12 17 1011.3 1011.1 0.0
25/05:00pm 34.6 28.6 -1.4 10 17.4 SE 20 30 11 16 1011.4 1011.2 0.0
25/04:30pm 34.5 28.9 -0.2 11 17.1 SE 19 26 10 14 1011.7 1011.5 0.0
25/04:00pm 35.1 31.3 -1.1 10 17.6 E 9 13 5 7 1012.0 1011.8 0.0
25/03:30pm 34.8 28.6 0.0 11 17.2 ENE 22 24 12 13 1012.3 1012.1 0.0
25/03:00pm 34.9 29.7 2.4 13 16.7 SE 19 30 10 16 1012.7 1012.5 0.0
25/02:30pm 33.7 28.3 2.5 14 16.0 E 20 35 11 19 1013.1 1012.9 0.0
25/02:00pm 34.2 29.1 3.9 15 15.9 SE 20 30 11 16 1013.4 1013.2 0.0
25/01:30pm 34.0 29.0 4.6 16 15.6 SE 20 30 11 16 1013.9 1013.7 0.0
25/01:00pm 33.3 27.2 5.0 17 15.0 SE 26 33 14 18 1014.4 1014.2 0.0
25/12:30pm 31.7 26.5 5.3 19 14.0 ESE 22 32 12 17 1014.9 1014.7 0.0
25/12:00pm 31.3 26.9 6.4 21 13.4 E 19 30 10 16 1015.3 1015.1 0.0
25/11:30am 30.9 26.3 6.7 22 13.1 E 20 30 11 16 1015.8 1015.6 0.0
25/11:00am 29.6 25.1 6.9 24 12.2 E 20 30 11 16 1016.2 1016.0 0.0
25/10:30am 27.9 23.3 6.6 26 11.3 E 20 30 11 16 1016.7 1016.5 0.0
25/10:00am 26.8 21.9 6.8 28 10.5 E 22 33 12 18 1017.3 1017.0 0.0
25/09:30am 25.6 20.7 6.7 30 9.9 E 22 32 12 17 1017.7 1017.4 0.0
25/09:00am 24.2 19.3 6.9 33 9.0 E 22 33 12 18 1018.0 1017.7 0.0
25/08:30am 22.8 17.5 7.0 36 8.2 E 24 30 13 16 1018.2 1017.9 0.0
25/08:00am 21.0 16.2 7.3 41 7.0 E 22 30 12 16 1018.4 1018.1 0.0
25/07:30am 19.4 14.6 7.2 45 6.2 E 22 32 12 17 1018.6 1018.4 0.0

Other Formats:

Comma delimited format used in spreadsheet applications
http://www.bom.gov.au/fwo/IDW60801/IDW60801.95612.axf

JavaScript Object Notation format (JSON) in row-major order
http://www.bom.gov.au/fwo/IDW60801/IDW60801.95612.json